Low Moor, Virginia
Current Conditions -  °F | °C
As of 7:35 AM on Thursday 23 Oct 2014 (Local Time) from KHSP Reporting Station
Overcast Overcast  
Wind Chill: 29°   Ceiling: 600
Heat Index: 38°   Visibility: 10mi
Dew Point: 37°   Wind: 18mph
Humidity: 93%   Direction: 320°NW
Pressure: 30.02"   Gusts: 29mph
Location:  37.79°N, 79.88°W
Report Text: KHSP 231135Z AUTO 32016G25KT 10SM OVC006 04/03 A3002 RMK AO2 T00360026
Loading
Personal Weather Stations






























Interactive Weather Map
Tropical Storm Tracking
New forecast layout! Learn more

10-Day Weather Forecast

Advertisements
Track Severe Weather on mobile